createdAt,value
2019-03-23T00:00:37.002Z,6.26
2019-03-23T00:01:37.597Z,6.11
2019-03-23T00:02:36.931Z,6.14
2019-03-23T00:03:36.928Z,6.19
2019-03-23T00:04:36.863Z,6.26
2019-03-23T00:05:36.832Z,6.20
2019-03-23T00:06:36.794Z,6.24
2019-03-23T00:07:36.766Z,6.19
2019-03-23T00:08:36.757Z,6.27
2019-03-23T00:09:36.707Z,6.26
2019-03-23T00:10:37.589Z,6.30
2019-03-23T00:11:36.657Z,6.26
2019-03-23T00:12:36.601Z,6.27
2019-03-23T00:13:36.604Z,6.28
2019-03-23T00:14:36.541Z,6.22
2019-03-23T00:15:37.184Z,6.24
2019-03-23T00:16:36.473Z,6.19
2019-03-23T00:17:36.439Z,6.16
2019-03-23T00:18:36.435Z,6.01
2019-03-23T00:19:36.372Z,6.05
2019-03-23T00:20:36.337Z,6.01
2019-03-23T00:21:36.308Z,6.07
2019-03-23T00:22:36.271Z,6.08
2019-03-23T00:23:36.296Z,5.93
2019-03-23T00:24:36.210Z,6.04
2019-03-23T00:25:36.177Z,6.01
2019-03-23T00:26:36.151Z,5.90
2019-03-23T00:27:36.115Z,5.98
2019-03-23T00:28:36.107Z,5.87
2019-03-23T00:29:36.693Z,5.82
2019-03-23T00:30:36.022Z,5.71
2019-03-23T00:31:35.992Z,5.71
2019-03-23T00:32:35.954Z,5.75
2019-03-23T00:33:35.915Z,5.73
2019-03-23T00:34:35.902Z,5.82
2019-03-23T00:35:35.846Z,5.73
2019-03-23T00:36:41.336Z,5.66
2019-03-23T00:37:35.791Z,5.69
2019-03-23T00:38:35.752Z,5.82
2019-03-23T00:39:35.745Z,5.83
2019-03-23T00:40:35.710Z,5.72
2019-03-23T00:41:35.656Z,5.83
2019-03-23T00:42:35.623Z,5.79
2019-03-23T00:43:35.586Z,5.83
2019-03-23T00:44:36.213Z,5.76
2019-03-23T00:45:35.529Z,5.80
2019-03-23T00:46:36.094Z,5.84
2019-03-23T00:47:35.454Z,5.76
2019-03-23T00:48:35.430Z,5.80
2019-03-23T00:49:35.416Z,5.80
2019-03-23T00:50:35.356Z,5.86
2019-03-23T00:51:35.321Z,5.82
2019-03-23T00:52:35.289Z,5.91
2019-03-23T00:53:35.260Z,5.90
2019-03-23T00:54:41.095Z,5.93
2019-03-23T00:55:35.192Z,5.90
2019-03-23T00:56:36.594Z,5.94
2019-03-23T00:57:35.133Z,5.91
2019-03-23T00:58:35.113Z,5.91
2019-03-23T00:59:35.094Z,5.83
2019-03-23T01:00:35.026Z,5.86
2019-03-23T01:01:34.998Z,5.84
2019-03-23T01:02:34.958Z,5.80
2019-03-23T01:03:34.927Z,5.65
2019-03-23T01:04:34.959Z,5.66
2019-03-23T01:05:34.860Z,5.66
2019-03-23T01:06:34.830Z,5.62
2019-03-23T01:07:34.799Z,5.64
2019-03-23T01:08:34.781Z,5.47
2019-03-23T01:09:34.753Z,5.54
2019-03-23T01:10:34.696Z,5.56
2019-03-23T01:11:34.668Z,5.46
2019-03-23T01:12:34.672Z,5.44
2019-03-23T01:13:34.603Z,5.43
2019-03-23T01:14:34.602Z,5.41
2019-03-23T01:15:34.596Z,5.32
2019-03-23T01:16:34.500Z,5.38
2019-03-23T01:17:34.468Z,5.30
2019-03-23T01:18:34.433Z,5.30
2019-03-23T01:19:34.431Z,5.26
2019-03-23T01:20:34.366Z,5.18
2019-03-23T01:21:34.342Z,5.17
2019-03-23T01:22:34.306Z,5.14
2019-03-23T01:23:34.268Z,5.20
2019-03-23T01:24:34.267Z,5.12
2019-03-23T01:25:34.217Z,5.15
2019-03-23T01:26:34.168Z,5.10
2019-03-23T01:27:34.136Z,5.14
2019-03-23T01:28:34.104Z,5.21
2019-03-23T01:29:34.103Z,5.20
2019-03-23T01:30:34.046Z,5.33
2019-03-23T01:31:34.005Z,5.25
2019-03-23T01:32:33.969Z,5.30
2019-03-23T01:33:33.940Z,5.26
2019-03-23T01:34:33.945Z,5.25
2019-03-23T01:35:33.875Z,5.14
2019-03-23T01:36:33.836Z,5.12
2019-03-23T01:37:33.809Z,5.10
2019-03-23T01:38:33.794Z,5.05
2019-03-23T01:39:33.746Z,5.00
2019-03-23T01:40:33.731Z,5.04
2019-03-23T01:41:33.677Z,4.96
2019-03-23T01:42:33.644Z,4.99
2019-03-23T01:43:33.612Z,4.90
2019-03-23T01:44:33.578Z,4.89
2019-03-23T01:45:33.561Z,4.93
2019-03-23T01:46:33.517Z,4.90
2019-03-23T01:47:33.472Z,4.92
2019-03-23T01:48:33.502Z,4.86
2019-03-23T01:49:33.415Z,4.93
2019-03-23T01:50:34.603Z,4.90
2019-03-23T01:51:33.462Z,4.87
2019-03-23T01:52:33.310Z,4.84
2019-03-23T01:53:33.288Z,4.84
2019-03-23T01:54:33.253Z,4.84
2019-03-23T01:55:33.240Z,4.80
2019-03-23T01:56:33.173Z,4.82
2019-03-23T01:57:33.143Z,4.78
2019-03-23T01:58:33.108Z,4.77
2019-03-23T01:59:33.075Z,4.77
2019-03-23T02:00:33.081Z,4.89
2019-03-23T02:01:33.602Z,4.87
2019-03-23T02:02:32.980Z,4.87
2019-03-23T02:03:32.944Z,4.93
2019-03-23T02:04:32.906Z,4.94
2019-03-23T02:05:32.913Z,4.96
2019-03-23T02:06:33.700Z,4.97
2019-03-23T02:07:32.816Z,5.02
2019-03-23T02:08:32.787Z,5.04
2019-03-23T02:09:32.743Z,5.08
2019-03-23T02:10:32.741Z,5.07
2019-03-23T02:11:32.673Z,5.12
2019-03-23T02:12:34.103Z,5.14
2019-03-23T02:13:32.611Z,5.12
2019-03-23T02:14:32.577Z,5.14
2019-03-23T02:15:32.571Z,5.11
2019-03-23T02:16:32.511Z,5.12
2019-03-23T02:17:32.481Z,5.05
2019-03-23T02:18:32.445Z,5.12
2019-03-23T02:19:32.407Z,5.07
2019-03-23T02:20:32.400Z,5.10
2019-03-23T02:21:32.347Z,5.21
2019-03-23T02:22:32.314Z,5.18
2019-03-23T02:23:32.273Z,5.17
2019-03-23T02:24:32.243Z,5.20
2019-03-23T02:25:32.230Z,5.25
2019-03-23T02:26:32.184Z,5.29
2019-03-23T02:27:32.143Z,5.28
2019-03-23T02:28:32.108Z,5.28
2019-03-23T02:29:32.072Z,5.29
2019-03-23T02:30:32.072Z,5.29
2019-03-23T02:31:32.008Z,5.33
2019-03-23T02:32:31.973Z,5.32
2019-03-23T02:33:31.941Z,5.36
2019-03-23T02:34:31.947Z,5.38
2019-03-23T02:35:31.901Z,5.39
2019-03-23T02:36:31.846Z,5.43
2019-03-23T02:37:31.818Z,5.50
2019-03-23T02:38:31.783Z,5.51
2019-03-23T02:39:31.743Z,5.62
2019-03-23T02:40:31.727Z,5.64
2019-03-23T02:41:31.799Z,5.62
2019-03-23T02:42:31.646Z,5.61
2019-03-23T02:43:31.609Z,5.62
2019-03-23T02:44:31.583Z,5.59
2019-03-23T02:45:31.546Z,5.46
2019-03-23T02:46:31.544Z,5.50
2019-03-23T02:47:31.486Z,5.50
2019-03-23T02:48:31.455Z,5.50
2019-03-23T02:49:31.416Z,5.50
2019-03-23T02:50:31.374Z,5.53
2019-03-23T02:51:31.372Z,5.50
2019-03-23T02:52:31.318Z,5.53
2019-03-23T02:53:31.286Z,5.53
2019-03-23T02:54:31.252Z,5.47
2019-03-23T02:55:31.217Z,5.43
2019-03-23T02:56:31.252Z,5.39
2019-03-23T02:57:31.153Z,5.39
2019-03-23T02:58:31.118Z,5.36
2019-03-23T02:59:31.081Z,5.38
2019-03-23T03:00:31.045Z,5.35
2019-03-23T03:01:31.049Z,5.28
2019-03-23T03:02:30.977Z,5.32
2019-03-23T03:03:30.969Z,5.26
2019-03-23T03:04:31.017Z,5.26
2019-03-23T03:05:30.881Z,5.23
2019-03-23T03:06:30.875Z,5.30
2019-03-23T03:07:41.151Z,5.30
2019-03-23T03:08:30.823Z,5.35
2019-03-23T03:09:30.823Z,5.29
2019-03-23T03:10:30.713Z,5.29
2019-03-23T03:11:30.707Z,5.36
2019-03-23T03:12:30.656Z,5.29
2019-03-23T03:13:30.615Z,5.25
2019-03-23T03:14:30.583Z,5.26
2019-03-23T03:15:30.548Z,5.28
2019-03-23T03:16:30.536Z,5.32
2019-03-23T03:17:30.483Z,5.32
2019-03-23T03:18:31.154Z,5.32
2019-03-23T03:19:30.448Z,5.32
2019-03-23T03:20:30.382Z,5.29
2019-03-23T03:21:30.371Z,5.38
2019-03-23T03:22:30.320Z,5.28
2019-03-23T03:23:30.287Z,5.26
2019-03-23T03:24:30.253Z,5.23
2019-03-23T03:25:30.218Z,5.25
2019-03-23T03:26:30.219Z,5.33
2019-03-23T03:27:30.243Z,5.25
2019-03-23T03:28:30.120Z,5.23
2019-03-23T03:29:30.083Z,5.15
2019-03-23T03:30:30.066Z,5.28
2019-03-23T03:31:30.057Z,5.23
2019-03-23T03:32:29.991Z,5.18
2019-03-23T03:33:29.979Z,5.11
2019-03-23T03:34:29.918Z,5.00
2019-03-23T03:35:29.886Z,5.07
2019-03-23T03:36:35.115Z,4.99
2019-03-23T03:37:29.823Z,4.93
2019-03-23T03:38:29.789Z,4.99
2019-03-23T03:39:29.751Z,4.92
2019-03-23T03:40:29.720Z,4.90
2019-03-23T03:41:29.732Z,4.77
2019-03-23T03:42:29.651Z,4.78
2019-03-23T03:43:29.706Z,4.80
2019-03-23T03:44:29.587Z,4.70
2019-03-23T03:45:29.554Z,4.71
2019-03-23T03:46:29.521Z,4.66
2019-03-23T03:47:29.527Z,4.56
2019-03-23T03:48:29.455Z,4.55
2019-03-23T03:49:29.420Z,4.55
2019-03-23T03:50:29.400Z,4.45
2019-03-23T03:51:29.380Z,4.49
2019-03-23T03:52:30.122Z,4.45
2019-03-23T03:53:29.287Z,4.48
2019-03-23T03:54:29.264Z,4.48
2019-03-23T03:55:29.226Z,4.42
2019-03-23T03:56:29.193Z,4.44
2019-03-23T03:57:29.183Z,4.55
2019-03-23T03:58:29.122Z,4.44
2019-03-23T03:59:29.104Z,4.49
2019-03-23T04:00:29.054Z,4.55
2019-03-23T04:01:29.021Z,4.45
2019-03-23T04:02:29.037Z,4.42
2019-03-23T04:03:28.954Z,4.48
2019-03-23T04:04:28.921Z,4.45
2019-03-23T04:05:28.913Z,4.40
2019-03-23T04:06:28.867Z,4.28
2019-03-23T04:07:28.839Z,4.37
2019-03-23T04:08:28.818Z,4.26
2019-03-23T04:09:28.791Z,4.17
2019-03-23T04:10:28.724Z,4.22
2019-03-23T04:11:28.682Z,4.23
2019-03-23T04:12:28.676Z,4.20
2019-03-23T04:13:28.623Z,4.22
2019-03-23T04:14:28.623Z,4.24
2019-03-23T04:15:28.561Z,4.19
2019-03-23T04:16:28.517Z,4.30
2019-03-23T04:17:36.755Z,4.24
2019-03-23T04:18:28.450Z,4.20
2019-03-23T04:19:28.420Z,4.42
2019-03-23T04:20:28.386Z,4.37
2019-03-23T04:21:28.360Z,4.49
2019-03-23T04:22:28.340Z,4.48
2019-03-23T04:23:28.313Z,4.45
2019-03-23T04:24:28.247Z,4.48
2019-03-23T04:25:28.242Z,4.40
2019-03-23T04:26:28.193Z,4.40
2019-03-23T04:27:28.169Z,4.37
2019-03-23T04:28:28.125Z,4.40
2019-03-23T04:29:28.085Z,4.35
2019-03-23T04:30:28.044Z,4.38
2019-03-23T04:31:28.018Z,4.32
2019-03-23T04:32:28.044Z,4.28
2019-03-23T04:33:27.946Z,4.31
2019-03-23T04:34:27.914Z,4.24
2019-03-23T04:35:27.925Z,4.14
2019-03-23T04:36:27.841Z,4.14
2019-03-23T04:37:27.836Z,4.08
2019-03-23T04:38:27.783Z,4.04
2019-03-23T04:39:27.745Z,3.99
2019-03-23T04:40:27.760Z,3.94
2019-03-23T04:41:27.778Z,3.95
2019-03-23T04:42:27.647Z,3.87
2019-03-23T04:43:27.634Z,3.87
2019-03-23T04:44:27.572Z,3.77
2019-03-23T04:45:27.538Z,3.81
2019-03-23T04:46:27.503Z,3.69
2019-03-23T04:47:27.472Z,3.77
2019-03-23T04:48:27.460Z,3.73
2019-03-23T04:49:27.403Z,3.63
2019-03-23T04:50:27.370Z,3.63
2019-03-23T04:51:27.346Z,3.59
2019-03-23T04:52:27.322Z,3.65
2019-03-23T04:53:27.303Z,3.63
2019-03-23T04:54:27.235Z,3.77
2019-03-23T04:55:27.207Z,3.76
2019-03-23T04:56:27.176Z,3.73
2019-03-23T04:57:27.135Z,3.78
2019-03-23T04:58:27.129Z,3.81
2019-03-23T04:59:27.072Z,3.86
2019-03-23T05:00:27.034Z,3.91
2019-03-23T05:01:27.002Z,3.84
2019-03-23T05:02:26.969Z,3.87
2019-03-23T05:03:26.962Z,3.86
2019-03-23T05:04:26.910Z,3.87
2019-03-23T05:05:26.872Z,3.98
2019-03-23T05:06:26.833Z,3.78
2019-03-23T05:07:26.797Z,3.77
2019-03-23T05:08:33.400Z,3.77
2019-03-23T05:09:26.731Z,3.78
2019-03-23T05:10:26.700Z,3.77
2019-03-23T05:11:26.667Z,3.63
2019-03-23T05:12:26.628Z,3.74
2019-03-23T05:13:26.622Z,3.77
2019-03-23T05:14:26.558Z,3.78
2019-03-23T05:15:26.527Z,3.87
2019-03-23T05:16:26.502Z,3.80
2019-03-23T05:17:26.459Z,3.62
2019-03-23T05:18:26.451Z,3.76
2019-03-23T05:19:26.393Z,3.73
2019-03-23T05:20:26.357Z,3.69
2019-03-23T05:21:26.329Z,3.78
2019-03-23T05:22:26.292Z,3.81
2019-03-23T05:23:26.283Z,3.92
2019-03-23T05:24:26.234Z,3.98
2019-03-23T05:25:26.193Z,4.05
2019-03-23T05:26:26.160Z,4.06
2019-03-23T05:27:26.122Z,4.14
2019-03-23T05:28:26.123Z,4.13
2019-03-23T05:29:26.056Z,4.08
2019-03-23T05:30:26.021Z,4.06
2019-03-23T05:31:26.000Z,4.08
2019-03-23T05:32:25.961Z,4.13
2019-03-23T05:33:25.949Z,4.10
2019-03-23T05:34:25.892Z,4.12
2019-03-23T05:35:25.863Z,4.16
2019-03-23T05:36:25.818Z,4.22
2019-03-23T05:37:25.790Z,4.19
2019-03-23T05:38:25.779Z,4.22
2019-03-23T05:39:25.718Z,4.30
2019-03-23T05:40:25.683Z,4.35
2019-03-23T05:41:25.648Z,4.28
2019-03-23T05:42:25.646Z,4.30
2019-03-23T05:43:25.623Z,4.23
2019-03-23T05:44:25.551Z,4.34
2019-03-23T05:45:25.526Z,4.24
2019-03-23T05:46:25.477Z,4.31
2019-03-23T05:47:25.480Z,4.26
2019-03-23T05:48:25.412Z,4.26
2019-03-23T05:49:25.402Z,4.38
2019-03-23T05:50:25.345Z,4.49
2019-03-23T05:51:25.309Z,4.41
2019-03-23T05:52:25.306Z,4.49
2019-03-23T05:53:25.246Z,4.44
2019-03-23T05:54:25.235Z,4.58
2019-03-23T05:55:25.188Z,4.55
2019-03-23T05:56:25.145Z,4.59
2019-03-23T05:57:25.113Z,4.60
2019-03-23T05:58:25.103Z,4.68
2019-03-23T05:59:25.076Z,4.66
2019-03-23T06:00:25.013Z,4.60
2019-03-23T06:01:24.978Z,4.66
2019-03-23T06:02:24.949Z,4.68
2019-03-23T06:03:24.912Z,4.73
2019-03-23T06:04:24.903Z,4.67
2019-03-23T06:05:24.875Z,4.60
2019-03-23T06:06:24.810Z,4.62
2019-03-23T06:07:24.804Z,4.63
2019-03-23T06:08:24.741Z,4.71
2019-03-23T06:09:24.739Z,4.82
2019-03-23T06:10:24.679Z,4.84
2019-03-23T06:11:24.649Z,4.89
2019-03-23T06:12:24.611Z,4.90
2019-03-23T06:13:24.609Z,4.97
2019-03-23T06:14:24.571Z,4.90
2019-03-23T06:15:24.513Z,5.04
2019-03-23T06:16:24.496Z,4.99
2019-03-23T06:17:24.446Z,5.10
2019-03-23T06:18:24.431Z,5.12
2019-03-23T06:19:24.433Z,5.15
2019-03-23T06:20:24.349Z,5.32
2019-03-23T06:21:24.321Z,5.29
2019-03-23T06:22:24.282Z,5.29
2019-03-23T06:23:24.244Z,5.32
2019-03-23T06:24:24.243Z,5.35
2019-03-23T06:25:24.180Z,5.47
2019-03-23T06:26:24.151Z,5.47
2019-03-23T06:27:24.128Z,5.50
2019-03-23T06:28:24.093Z,5.53
2019-03-23T06:29:24.079Z,5.54
2019-03-23T06:30:24.020Z,5.61
2019-03-23T06:31:23.986Z,5.69
2019-03-23T06:32:23.973Z,5.72
2019-03-23T06:33:23.922Z,5.84
2019-03-23T06:34:23.920Z,5.90
2019-03-23T06:35:27.670Z,5.94
2019-03-23T06:36:23.822Z,5.99
2019-03-23T06:37:23.794Z,6.07
2019-03-23T06:38:23.757Z,5.97
2019-03-23T06:39:23.825Z,6.07
2019-03-23T06:40:23.691Z,6.14
2019-03-23T06:41:23.668Z,6.24
2019-03-23T06:42:23.626Z,6.28
2019-03-23T06:43:23.595Z,6.31
2019-03-23T06:44:23.595Z,6.48
2019-03-23T06:45:23.531Z,6.39
2019-03-23T06:46:23.502Z,6.52
2019-03-23T06:47:23.511Z,6.48
2019-03-23T06:48:23.496Z,6.62
2019-03-23T06:49:23.434Z,6.69
2019-03-23T06:50:23.372Z,6.66
2019-03-23T06:51:23.342Z,6.84
2019-03-23T06:52:23.309Z,6.88
2019-03-23T06:53:23.275Z,6.89
2019-03-23T06:54:23.273Z,7.07
2019-03-23T06:55:23.229Z,7.05
2019-03-23T06:56:23.177Z,7.07
2019-03-23T06:57:23.141Z,7.15
2019-03-23T06:58:23.112Z,7.17
2019-03-23T06:59:23.106Z,7.25
2019-03-23T07:00:23.076Z,7.33
2019-03-23T07:01:23.032Z,7.29
2019-03-23T07:02:22.984Z,7.36
2019-03-23T07:03:22.958Z,7.48
2019-03-23T07:04:22.955Z,7.42
2019-03-23T07:05:22.918Z,7.53
2019-03-23T07:06:22.865Z,7.54
2019-03-23T07:07:22.829Z,7.60
2019-03-23T07:08:31.612Z,7.69
2019-03-23T07:09:22.783Z,7.75
2019-03-23T07:10:22.761Z,7.76
2019-03-23T07:11:22.727Z,7.76
2019-03-23T07:12:22.670Z,7.80
2019-03-23T07:13:22.642Z,7.93
2019-03-23T07:14:22.607Z,8.08
2019-03-23T07:15:22.596Z,8.03
2019-03-23T07:16:24.826Z,8.15
2019-03-23T07:17:22.508Z,8.10
2019-03-23T07:18:22.487Z,8.12
2019-03-23T07:19:22.450Z,8.23
2019-03-23T07:20:22.457Z,8.27
2019-03-23T07:21:22.419Z,8.36
2019-03-23T07:22:22.354Z,8.41
2019-03-23T07:23:22.323Z,8.46
2019-03-23T07:24:22.288Z,8.51
2019-03-23T07:25:22.289Z,8.61
2019-03-23T07:26:22.233Z,8.66
2019-03-23T07:27:22.202Z,8.71
2019-03-23T07:28:22.177Z,8.88
2019-03-23T07:29:22.133Z,8.95
2019-03-23T07:30:22.139Z,8.92
2019-03-23T07:31:22.076Z,8.99
2019-03-23T07:32:22.679Z,9.08
2019-03-23T07:33:22.010Z,9.13
2019-03-23T07:34:21.994Z,9.19
2019-03-23T07:35:21.987Z,9.23
2019-03-23T07:36:21.923Z,9.28
2019-03-23T07:37:21.886Z,9.28
2019-03-23T07:38:21.859Z,9.32
2019-03-23T07:39:27.174Z,9.43
2019-03-23T07:40:21.833Z,9.41
2019-03-23T07:41:21.766Z,9.46
2019-03-23T07:42:21.738Z,9.48
2019-03-23T07:43:21.722Z,9.50
2019-03-23T07:44:21.680Z,9.54
2019-03-23T07:45:21.680Z,9.55
2019-03-23T07:46:21.636Z,9.66
2019-03-23T07:47:21.581Z,9.76
2019-03-23T07:48:21.555Z,9.77
2019-03-23T07:49:21.524Z,9.68
2019-03-23T07:50:21.491Z,9.77
2019-03-23T07:51:21.491Z,9.82
2019-03-23T07:52:21.432Z,9.95
2019-03-23T07:53:21.407Z,9.91
2019-03-23T07:54:21.370Z,9.94
2019-03-23T07:55:21.360Z,10.04
2019-03-23T07:56:21.330Z,10.12
2019-03-23T07:57:21.277Z,10.15
2019-03-23T07:58:21.250Z,10.15
2019-03-23T07:59:21.224Z,10.30
2019-03-23T08:00:21.187Z,10.30
2019-03-23T08:01:21.180Z,10.42
2019-03-23T08:02:21.129Z,10.44
2019-03-23T08:03:21.098Z,10.49
2019-03-23T08:04:21.072Z,10.57
2019-03-23T08:05:21.035Z,10.63
2019-03-23T08:06:21.079Z,10.64
2019-03-23T08:07:20.983Z,10.72
2019-03-23T08:08:20.944Z,10.79
2019-03-23T08:09:23.430Z,10.87
2019-03-23T08:10:20.930Z,10.86
2019-03-23T08:11:20.885Z,10.90
2019-03-23T08:12:20.831Z,11.07
2019-03-23T08:13:20.824Z,11.02
2019-03-23T08:14:20.773Z,10.96
2019-03-23T08:15:20.734Z,11.04
2019-03-23T08:16:20.742Z,11.14
2019-03-23T08:17:20.674Z,11.12
2019-03-23T08:18:20.698Z,11.26
2019-03-23T08:19:20.614Z,11.27
2019-03-23T08:20:20.586Z,11.36
2019-03-23T08:21:20.578Z,11.45
2019-03-23T08:22:20.529Z,11.51
2019-03-23T08:23:20.499Z,11.51
2019-03-23T08:24:20.469Z,11.50
2019-03-23T08:25:20.443Z,11.55
2019-03-23T08:26:20.441Z,11.57
2019-03-23T08:27:20.375Z,11.55
2019-03-23T08:28:20.354Z,11.69
2019-03-23T08:29:20.320Z,11.69
2019-03-23T08:30:20.302Z,11.78
2019-03-23T08:31:20.291Z,11.87
2019-03-23T08:32:20.233Z,11.94
2019-03-23T08:33:20.201Z,11.87
2019-03-23T08:34:20.216Z,11.87
2019-03-23T08:35:20.154Z,11.99
2019-03-23T08:36:20.148Z,12.02
2019-03-23T08:37:20.089Z,11.95
2019-03-23T08:38:20.069Z,11.97
2019-03-23T08:39:20.027Z,11.84
2019-03-23T08:40:20.002Z,11.78
2019-03-23T08:41:20.003Z,11.73
2019-03-23T08:42:19.938Z,11.91
2019-03-23T08:43:19.913Z,11.99
2019-03-23T08:44:19.884Z,12.02
2019-03-23T08:45:19.850Z,11.95
2019-03-23T08:46:19.846Z,11.99
2019-03-23T08:47:19.796Z,11.95
2019-03-23T08:48:19.769Z,12.12
2019-03-23T08:49:19.732Z,12.09
2019-03-23T08:50:19.714Z,12.17
2019-03-23T08:51:19.679Z,12.27
2019-03-23T08:52:19.674Z,12.29
2019-03-23T08:53:19.626Z,12.43
2019-03-23T08:54:19.610Z,12.49
2019-03-23T08:55:19.560Z,12.55
2019-03-23T08:56:19.528Z,12.57
2019-03-23T08:57:19.527Z,12.57
2019-03-23T08:58:19.475Z,12.55
2019-03-23T08:59:19.461Z,12.62
2019-03-23T09:00:19.422Z,12.53
2019-03-23T09:01:19.385Z,12.64
2019-03-23T09:02:21.639Z,12.73
2019-03-23T09:03:19.328Z,12.79
2019-03-23T09:04:19.315Z,12.94
2019-03-23T09:05:19.280Z,13.08
2019-03-23T09:06:19.260Z,13.08
2019-03-23T09:07:19.237Z,13.15
2019-03-23T09:08:19.196Z,13.19
2019-03-23T09:09:19.159Z,13.13
2019-03-23T09:10:19.164Z,13.27
2019-03-23T09:11:20.661Z,13.12
2019-03-23T09:12:19.093Z,13.19
2019-03-23T09:13:19.046Z,13.18
2019-03-23T09:14:19.012Z,13.25
2019-03-23T09:15:19.007Z,13.22
2019-03-23T09:16:18.963Z,13.18
2019-03-23T09:17:18.956Z,13.13
2019-03-23T09:18:18.974Z,13.27
2019-03-23T09:19:18.870Z,13.23
2019-03-23T09:20:18.842Z,13.35
2019-03-23T09:21:18.814Z,13.42
2019-03-23T09:22:18.808Z,13.53
2019-03-23T09:23:18.770Z,13.57
2019-03-23T09:24:18.735Z,13.59
2019-03-23T09:25:18.705Z,13.59
2019-03-23T09:26:18.670Z,13.53
2019-03-23T09:27:18.681Z,13.50
2019-03-23T09:28:18.614Z,13.57
2019-03-23T09:29:18.601Z,13.60
2019-03-23T09:30:18.575Z,13.67
2019-03-23T09:31:18.530Z,13.67
2019-03-23T09:32:18.528Z,13.68
2019-03-23T09:33:18.473Z,13.83
2019-03-23T09:34:18.464Z,13.86
2019-03-23T09:35:18.423Z,13.99
2019-03-23T09:36:18.397Z,14.08
2019-03-23T09:37:18.386Z,14.14
2019-03-23T09:38:18.348Z,14.26
2019-03-23T09:39:18.315Z,14.22
2019-03-23T09:40:18.291Z,14.41
2019-03-23T09:41:18.260Z,14.32
2019-03-23T09:42:18.257Z,14.40
2019-03-23T09:43:18.223Z,14.33
2019-03-23T09:44:18.163Z,14.29
2019-03-23T09:45:18.242Z,14.20
2019-03-23T09:46:18.115Z,14.18
2019-03-23T09:47:18.118Z,14.15
2019-03-23T09:48:18.062Z,14.25
2019-03-23T09:49:18.028Z,14.25
2019-03-23T09:50:18.002Z,14.28
2019-03-23T09:51:17.973Z,14.25
2019-03-23T09:52:17.946Z,14.25
2019-03-23T09:53:17.954Z,14.44
2019-03-23T09:54:17.890Z,14.51
2019-03-23T09:55:17.869Z,14.50
2019-03-23T09:56:17.832Z,14.47
2019-03-23T09:57:17.806Z,14.48
2019-03-23T09:58:17.801Z,14.47
2019-03-23T09:59:17.750Z,14.53
2019-03-23T10:00:17.735Z,14.55
2019-03-23T10:01:17.692Z,14.51
2019-03-23T10:02:17.675Z,14.51
2019-03-23T10:03:17.715Z,14.54
2019-03-23T10:04:17.612Z,14.45
2019-03-23T10:05:17.589Z,14.30
2019-03-23T10:06:17.556Z,14.48
2019-03-23T10:07:17.545Z,14.58
2019-03-23T10:08:17.526Z,14.59
2019-03-23T10:09:17.472Z,14.69
2019-03-23T10:10:22.032Z,14.55
2019-03-23T10:11:17.417Z,14.47
2019-03-23T10:12:17.382Z,14.33
2019-03-23T10:13:17.436Z,14.43
2019-03-23T10:14:17.336Z,14.48
2019-03-23T10:15:17.318Z,14.32
2019-03-23T10:16:17.287Z,14.37
2019-03-23T10:17:17.244Z,14.41
2019-03-23T10:18:24.916Z,14.50
2019-03-23T10:19:17.199Z,14.66
2019-03-23T10:20:17.162Z,14.68
2019-03-23T10:21:17.132Z,14.73
2019-03-23T10:22:17.126Z,14.86
2019-03-23T10:23:17.403Z,14.81
2019-03-23T10:24:17.109Z,14.92
2019-03-23T10:25:17.020Z,14.82
2019-03-23T10:26:16.996Z,14.73
2019-03-23T10:27:16.969Z,14.88
2019-03-23T10:28:16.960Z,14.86
2019-03-23T10:29:16.946Z,14.79
2019-03-23T10:30:16.882Z,14.86
2019-03-23T10:31:16.854Z,15.00
2019-03-23T10:32:16.839Z,15.04
2019-03-23T10:33:16.830Z,15.03
2019-03-23T10:34:16.773Z,14.91
2019-03-23T10:35:16.756Z,15.04
2019-03-23T10:36:16.719Z,15.00
2019-03-23T10:37:16.695Z,15.02
2019-03-23T10:38:16.682Z,15.00
2019-03-23T10:39:16.636Z,15.03
2019-03-23T10:40:16.611Z,15.07
2019-03-23T10:41:16.578Z,15.09
2019-03-23T10:42:16.579Z,15.04
2019-03-23T10:43:16.622Z,15.00
2019-03-23T10:44:16.498Z,15.03
2019-03-23T10:45:16.472Z,15.03
2019-03-23T10:46:16.442Z,15.04
2019-03-23T10:47:16.438Z,15.02
2019-03-23T10:48:16.392Z,15.18
2019-03-23T10:49:16.387Z,15.18
2019-03-23T10:50:16.334Z,15.19
2019-03-23T10:51:16.307Z,15.27
2019-03-23T10:52:16.277Z,15.31
2019-03-23T10:53:22.950Z,15.31
2019-03-23T10:54:16.250Z,15.39
2019-03-23T10:55:16.196Z,15.49
2019-03-23T10:56:16.170Z,15.57
2019-03-23T10:57:16.141Z,15.52
2019-03-23T10:58:16.115Z,15.54
2019-03-23T10:59:16.114Z,15.52
2019-03-23T11:00:16.066Z,15.51
2019-03-23T11:01:16.060Z,15.52
2019-03-23T11:02:16.005Z,15.61
2019-03-23T11:03:15.988Z,15.70
2019-03-23T11:04:15.979Z,15.70
2019-03-23T11:05:15.928Z,15.49
2019-03-23T11:06:15.901Z,15.49
2019-03-23T11:07:15.879Z,15.47
2019-03-23T11:08:15.846Z,15.42
2019-03-23T11:09:15.860Z,15.49
2019-03-23T11:10:15.797Z,15.49
2019-03-23T11:11:15.767Z,15.49
2019-03-23T11:12:15.742Z,15.52
2019-03-23T11:13:15.724Z,15.61
2019-03-23T11:14:15.710Z,15.67
2019-03-23T11:15:15.660Z,15.70
2019-03-23T11:16:15.634Z,15.59
2019-03-23T11:17:15.606Z,15.42
2019-03-23T11:18:15.585Z,15.51
2019-03-23T11:19:15.574Z,15.65
2019-03-23T11:20:15.525Z,15.70
2019-03-23T11:21:15.502Z,15.70
2019-03-23T11:22:15.470Z,15.65
2019-03-23T11:23:15.487Z,15.68
2019-03-23T11:24:15.444Z,15.68
2019-03-23T11:25:15.393Z,15.68
2019-03-23T11:26:15.361Z,15.75
2019-03-23T11:27:15.353Z,15.80
2019-03-23T11:28:15.308Z,15.79
2019-03-23T11:29:15.304Z,16.02
2019-03-23T11:30:15.276Z,16.01
2019-03-23T11:31:15.232Z,16.08
2019-03-23T11:32:15.204Z,16.17
2019-03-23T11:33:15.176Z,16.01
2019-03-23T11:34:18.036Z,16.05
2019-03-23T11:35:15.205Z,16.04
2019-03-23T11:36:15.096Z,16.05
2019-03-23T11:37:15.114Z,16.16
2019-03-23T11:38:15.048Z,16.32
2019-03-23T11:39:15.042Z,16.47
2019-03-23T11:40:15.046Z,16.35
2019-03-23T11:41:14.979Z,15.82
2019-03-23T11:42:14.941Z,15.33
2019-03-23T11:43:14.921Z,15.17
2019-03-23T11:44:15.364Z,15.15
2019-03-23T11:45:14.880Z,15.19
2019-03-23T11:46:16.910Z,15.31
2019-03-23T11:47:14.806Z,15.33
2019-03-23T11:48:14.792Z,15.31
2019-03-23T11:49:14.847Z,15.09
2019-03-23T11:50:15.327Z,15.07
2019-03-23T11:51:14.703Z,14.89
2019-03-23T11:52:14.678Z,14.84
2019-03-23T11:53:14.646Z,14.68
2019-03-23T11:54:14.624Z,14.48
2019-03-23T11:55:14.621Z,14.25
2019-03-23T11:56:14.566Z,13.89
2019-03-23T11:57:14.538Z,13.77
2019-03-23T11:58:14.521Z,13.56
2019-03-23T11:59:14.484Z,13.52
2019-03-23T12:00:14.551Z,13.60
2019-03-23T12:01:14.441Z,13.44
2019-03-23T12:02:14.403Z,13.52
2019-03-23T12:03:14.391Z,13.50
2019-03-23T12:04:14.351Z,13.49
2019-03-23T12:05:14.346Z,13.28
2019-03-23T12:06:14.293Z,13.28
2019-03-23T12:07:14.289Z,13.23
2019-03-23T12:08:14.244Z,13.25
2019-03-23T12:09:14.220Z,13.33
2019-03-23T12:10:14.205Z,13.44
2019-03-23T12:11:14.155Z,13.42
2019-03-23T12:12:14.131Z,13.39
2019-03-23T12:13:14.104Z,13.33
2019-03-23T12:14:14.073Z,13.27
2019-03-23T12:15:14.080Z,13.33
2019-03-23T12:16:14.032Z,13.31
2019-03-23T12:17:13.993Z,13.35
2019-03-23T12:18:13.961Z,13.41
2019-03-23T12:19:13.937Z,13.33
2019-03-23T12:20:13.931Z,13.16
2019-03-23T12:21:13.878Z,13.23
2019-03-23T12:22:13.858Z,13.19
2019-03-23T12:23:13.823Z,13.20
2019-03-23T12:24:13.794Z,13.19
2019-03-23T12:25:13.793Z,13.25
2019-03-23T12:26:13.745Z,13.23
2019-03-23T12:27:13.709Z,13.27
2019-03-23T12:28:13.679Z,13.22
2019-03-23T12:29:13.662Z,13.38
2019-03-23T12:30:13.653Z,13.44
2019-03-23T12:31:13.598Z,13.27
2019-03-23T12:32:13.573Z,13.20
2019-03-23T12:33:13.540Z,13.23
2019-03-23T12:34:13.511Z,13.25
2019-03-23T12:35:13.505Z,13.33
2019-03-23T12:36:13.476Z,13.38
2019-03-23T12:37:13.429Z,13.63
2019-03-23T12:38:13.401Z,13.59
2019-03-23T12:39:13.384Z,13.46
2019-03-23T12:40:13.369Z,13.41
2019-03-23T12:41:22.782Z,13.44
2019-03-23T12:42:13.290Z,13.38
2019-03-23T12:43:13.264Z,13.16
2019-03-23T12:44:13.234Z,12.86
2019-03-23T12:45:13.207Z,12.67
2019-03-23T12:46:13.204Z,12.78
2019-03-23T12:47:13.153Z,12.72
2019-03-23T12:48:13.124Z,12.61
2019-03-23T12:49:13.098Z,12.68
2019-03-23T12:50:13.067Z,12.67
2019-03-23T12:51:13.064Z,12.65
2019-03-23T12:52:13.010Z,12.72
2019-03-23T12:53:12.982Z,12.64
2019-03-23T12:54:12.956Z,12.35
2019-03-23T12:55:12.938Z,12.27
2019-03-23T12:56:12.926Z,12.21
2019-03-23T12:57:12.874Z,11.97
2019-03-23T12:58:12.844Z,11.95
2019-03-23T12:59:12.814Z,11.83
2019-03-23T13:00:12.787Z,11.66
2019-03-23T13:01:12.784Z,11.57
2019-03-23T13:02:12.784Z,11.48
2019-03-23T13:03:12.716Z,11.47
2019-03-23T13:04:12.671Z,11.48
2019-03-23T13:05:12.654Z,11.35
2019-03-23T13:06:12.636Z,11.30
2019-03-23T13:07:12.621Z,11.26
2019-03-23T13:08:12.562Z,11.44